Time;durP1;ratioP1;P1;durP2;ratioP2;P2;SDS_P1;SDS_P2;PMS_P1;PMS_P2;Temp;Humidity;BMP_temperature;BMP_pressure;BME280_temperature;BME280_humidity;BME280_pressure;Samples;Min_cycle;Max_cycle;Signal;HPM_P1;HPM_P2
2022/07/30 00:01:54;;;;;;;;;;;;;;;16.09;100.00;101892.97;5036388;28;19932;-54
2022/07/30 00:04:20;;;;;;;;;;;;;;;16.08;100.00;101895.75;5054049;28;19928;-53
2022/07/30 00:06:45;;;;;;;;;;;;;;;16.06;100.00;101893.13;5053612;28;20287;-56
2022/07/30 00:09:10;;;;;;;;;;;;;;;16.00;100.00;101886.28;5054563;28;19917;-54
2022/07/30 00:11:36;;;;;;;;;;;;;;;15.96;100.00;101892.75;5054374;28;19956;-57
2022/07/30 00:14:01;;;;;;;;;;;;;;;15.95;100.00;101891.00;5053917;28;20693;-56
2022/07/30 00:16:26;;;;;;;;;;;;;;;15.93;100.00;101878.66;5035822;28;19924;-55
2022/07/30 00:18:51;;;;;;;;;;;;;;;15.89;100.00;101881.50;5054005;28;19942;-56
2022/07/30 00:21:17;;;;;;;;;;;;;;;15.85;100.00;101871.06;5036324;28;20000;-54
2022/07/30 00:23:42;;;;;;;;;;;;;;;15.82;100.00;101881.88;5036276;28;19913;-55
2022/07/30 00:26:07;;;;;;;;;;;;;;;15.78;100.00;101874.94;5053269;28;20392;-55
2022/07/30 00:28:32;;;;;;;;;;;;;;;15.77;100.00;101875.88;5053772;28;19917;-54
2022/07/30 00:30:58;;;;;;;;;;;;;;;15.74;100.00;101868.88;5053895;28;19917;-55
2022/07/30 00:33:23;;;;;;;;;;;;;;;15.76;100.00;101875.00;5035749;28;19921;-54
2022/07/30 00:35:48;;;;;;;;;;;;;;;15.76;100.00;101869.66;5053216;28;19927;-55
2022/07/30 00:38:13;;;;;;;;;;;;;;;15.73;100.00;101869.84;5015390;28;19921;-56
2022/07/30 00:40:39;;;;;;;;;;;;;;;15.73;100.00;101862.69;5033935;28;20038;-53
2022/07/30 00:43:05;;;;;;;;;;;;;;;15.73;100.00;101872.50;5032484;28;19917;-55
2022/07/30 00:45:30;;;;;;;;;;;;;;;15.70;100.00;101870.84;5022485;28;20003;-55
2022/07/30 00:47:55;;;;;;;;;;;;;;;15.67;100.00;101859.47;5018489;28;20015;-52
2022/07/30 00:50:20;;;;;;;;;;;;;;;15.66;100.00;101874.59;5035219;28;20008;-56
2022/07/30 00:52:46;;;;;;;;;;;;;;;15.63;100.00;101861.41;5035786;28;20003;-54
2022/07/30 00:55:12;;;;;;;;;;;;;;;15.62;100.00;101865.03;5053189;28;19923;-54
2022/07/30 00:57:38;;;;;;;;;;;;;;;15.61;100.00;101862.44;5034774;28;19940;-54
2022/07/30 01:00:06;;;;;;;;;;;;;;;15.60;100.00;101858.91;5035514;28;19913;-55
2022/07/30 01:02:31;;;;;;;;;;;;;;;15.58;100.00;101863.44;5053129;28;19927;-54
2022/07/30 01:04:56;;;;;;;;;;;;;;;15.58;100.00;101866.13;5035359;28;20346;-54
2022/07/30 01:07:21;;;;;;;;;;;;;;;15.57;100.00;101859.94;5052317;28;19928;-55
2022/07/30 01:09:46;;;;;;;;;;;;;;;15.54;100.00;101854.72;5035137;28;19925;-54
2022/07/30 01:12:15;;;;;;;;;;;;;;;15.51;100.00;101851.34;5053052;28;20373;-56
2022/07/30 01:14:41;;;;;;;;;;;;;;;15.49;100.00;101855.91;5051644;28;19924;-55
2022/07/30 01:17:06;;;;;;;;;;;;;;;15.44;100.00;101861.47;5052076;28;19921;-57
2022/07/30 01:19:51;;;;;;;;;;;;;;;15.40;100.00;101866.06;5052433;28;20371;-55
2022/07/30 01:22:16;;;;;;;;;;;;;;;15.36;100.00;101861.84;5052864;28;19917;-53
2022/07/30 01:25:07;;;;;;;;;;;;;;;15.36;100.00;101866.31;5052989;28;20003;-57
2022/07/30 01:27:35;;;;;;;;;;;;;;;15.34;100.00;101861.03;5028979;28;20098;-54
2022/07/30 01:30:01;;;;;;;;;;;;;;;15.34;100.00;101854.84;5034210;28;19923;-54
2022/07/30 01:32:27;;;;;;;;;;;;;;;15.33;100.00;101862.00;5034498;28;19921;-54
2022/07/30 01:34:55;;;;;;;;;;;;;;;15.32;100.00;101856.72;5034791;28;19966;-52
2022/07/30 01:37:21;;;;;;;;;;;;;;;15.31;100.00;101857.66;5052202;28;19924;-58
2022/07/30 01:39:48;;;;;;;;;;;;;;;15.31;100.00;101857.66;5034510;28;20281;-56
2022/07/30 01:42:14;;;;;;;;;;;;;;;15.29;100.00;101859.53;5014839;28;19920;-54
2022/07/30 01:44:39;;;;;;;;;;;;;;;15.22;100.00;101859.81;5029699;28;19917;-55
2022/07/30 01:47:05;;;;;;;;;;;;;;;15.17;100.00;101851.19;5052053;28;19924;-56
2022/07/30 01:49:31;;;;;;;;;;;;;;;15.13;100.00;101851.38;5051979;28;19921;-56
2022/07/30 01:51:57;;;;;;;;;;;;;;;15.11;100.00;101848.81;5051896;28;19921;-56
2022/07/30 01:54:24;;;;;;;;;;;;;;;15.09;100.00;101856.03;5034467;28;19916;-53
2022/07/30 01:56:51;;;;;;;;;;;;;;;15.10;100.00;101862.22;5051865;28;19932;-55
2022/07/30 01:59:18;;;;;;;;;;;;;;;15.08;100.00;101852.47;5051862;28;19916;-54
2022/07/30 02:01:44;;;;;;;;;;;;;;;15.08;100.00;101859.63;5051209;28;19925;-55
2022/07/30 02:04:09;;;;;;;;;;;;;;;15.07;100.00;101855.22;5034375;28;19967;-55
2022/07/30 02:06:39;;;;;;;;;;;;;;;15.05;100.00;101852.66;5051278;28;21575;-55
2022/07/30 02:09:05;;;;;;;;;;;;;;;15.05;100.00;101855.31;5051752;28;20424;-54
2022/07/30 02:14:21;;;;;;;;;;;;;;;15.04;100.00;101861.56;5051431;28;19927;-53
2022/07/30 02:16:49;;;;;;;;;;;;;;;15.02;100.00;101863.44;5052042;28;20024;-54
2022/07/30 02:19:15;;;;;;;;;;;;;;;15.02;100.00;101867.94;5033740;28;19935;-57
2022/07/30 02:21:51;;;;;;;;;;;;;;;15.00;100.00;101864.44;5052288;28;20232;-54
2022/07/30 02:24:20;;;;;;;;;;;;;;;15.00;100.00;101867.13;5050336;28;19913;-54
2022/07/30 02:26:48;;;;;;;;;;;;;;;14.98;100.00;101874.34;5034289;28;20376;-54
2022/07/30 02:29:15;;;;;;;;;;;;;;;14.96;100.00;101879.75;5051492;28;19949;-55
2022/07/30 02:31:40;;;;;;;;;;;;;;;14.95;100.00;101877.13;5052118;28;20343;-56
2022/07/30 02:34:07;;;;;;;;;;;;;;;14.92;100.00;101875.47;5033534;28;19916;-53
2022/07/30 02:36:34;;;;;;;;;;;;;;;14.89;100.00;101868.50;5051714;28;19925;-51
2022/07/30 02:39:01;;;;;;;;;;;;;;;14.88;100.00;101865.91;5051458;28;19977;-52
2022/07/30 02:41:28;;;;;;;;;;;;;;;14.89;100.00;101862.31;5051713;28;20381;-56
2022/07/30 02:43:54;;;;;;;;;;;;;;;14.88;100.00;101860.56;5051196;28;19921;-56
2022/07/30 02:46:20;;;;;;;;;;;;;;;14.87;100.00;101859.72;5051432;28;20299;-54
2022/07/30 02:48:47;;;;;;;;;;;;;;;14.86;100.00;101854.44;5033064;28;19913;-54
2022/07/30 02:51:14;;;;;;;;;;;;;;;14.84;100.00;101856.31;5051364;28;20399;-55
2022/07/30 02:53:42;;;;;;;;;;;;;;;14.85;100.00;101855.38;5051667;28;19917;-55
2022/07/30 02:56:08;;;;;;;;;;;;;;;14.85;100.00;101856.25;5016447;28;20387;-56
2022/07/30 02:58:34;;;;;;;;;;;;;;;14.84;100.00;101857.16;5050939;28;19921;-56
2022/07/30 03:01:01;;;;;;;;;;;;;;;14.83;100.00;101858.09;5050683;28;19917;-57
2022/07/30 03:03:28;;;;;;;;;;;;;;;14.84;100.00;101856.31;5032957;28;19971;-56
2022/07/30 03:05:54;;;;;;;;;;;;;;;14.82;100.00;101853.72;5032854;28;20018;-56
2022/07/30 03:08:19;;;;;;;;;;;;;;;14.80;100.00;101860.94;5050891;28;19967;-56
2022/07/30 03:10:46;;;;;;;;;;;;;;;14.79;100.00;101859.19;5032782;28;20056;-55
2022/07/30 03:13:11;;;;;;;;;;;;;;;14.79;100.00;101861.84;5036136;28;19978;-57
2022/07/30 03:15:38;;;;;;;;;;;;;;;14.81;100.00;101854.66;5036537;28;20091;-56
2022/07/30 03:18:05;;;;;;;;;;;;;;;14.83;100.00;101862.59;5036686;28;19920;-53
2022/07/30 03:20:31;;;;;;;;;;;;;;;14.83;100.00;101858.09;5036458;28;20420;-56
2022/07/30 03:22:57;;;;;;;;;;;;;;;14.86;100.00;101862.44;5054501;28;19917;-57
2022/07/30 03:25:25;;;;;;;;;;;;;;;14.86;100.00;101860.66;5054487;28;19912;-55
2022/07/30 03:27:52;;;;;;;;;;;;;;;14.86;100.00;101859.75;5054280;28;19921;-54
2022/07/30 03:30:17;;;;;;;;;;;;;;;14.85;100.00;101868.72;5054255;28;19913;-54
2022/07/30 03:32:43;;;;;;;;;;;;;;;14.86;100.00;101870.44;5055214;28;19920;-54
2022/07/30 03:35:09;;;;;;;;;;;;;;;14.86;100.00;101859.75;5037128;28;19921;-56
2022/07/30 03:37:36;;;;;;;;;;;;;;;14.85;100.00;101858.91;5054600;28;19925;-55
2022/07/30 03:40:01;;;;;;;;;;;;;;;14.84;100.00;101869.66;5037077;28;19935;-54
2022/07/30 03:42:27;;;;;;;;;;;;;;;14.83;100.00;101859.91;5036535;28;19927;-56
2022/07/30 03:44:52;;;;;;;;;;;;;;;14.83;100.00;101868.78;5037024;28;19913;-56
2022/07/30 03:47:18;;;;;;;;;;;;;;;14.81;100.00;101864.44;5036553;28;19928;-55
2022/07/30 03:49:44;;;;;;;;;;;;;;;14.81;100.00;101868.00;5055003;28;19917;-56
2022/07/30 03:52:09;;;;;;;;;;;;;;;14.82;100.00;101869.72;5054338;28;19917;-55
2022/07/30 03:54:35;;;;;;;;;;;;;;;14.81;100.00;101870.66;5054365;28;19974;-56
2022/07/30 03:57:02;;;;;;;;;;;;;;;14.80;100.00;101868.06;5054813;28;19921;-57
2022/07/30 03:59:28;;;;;;;;;;;;;;;14.78;100.00;101865.44;5036278;28;20015;-54
2022/07/30 04:01:53;;;;;;;;;;;;;;;14.79;100.00;101869.00;5053996;28;19968;-57
2022/07/30 04:04:18;;;;;;;;;;;;;;;14.80;100.00;101871.59;5054555;28;19995;-55
2022/07/30 04:06:43;;;;;;;;;;;;;;;14.85;100.00;101874.91;5036828;28;20361;-53
2022/07/30 04:09:10;;;;;;;;;;;;;;;14.89;100.00;101878.31;5036024;28;19917;-56
2022/07/30 04:11:35;;;;;;;;;;;;;;;14.90;100.00;101886.22;5054266;28;20331;-56
2022/07/30 04:14:00;;;;;;;;;;;;;;;14.91;100.00;101884.41;5054181;28;20368;-57
2022/07/30 04:16:38;;;;;;;;;;;;;;;14.91;100.00;101879.06;5054062;28;19944;-56
2022/07/30 04:19:07;;;;;;;;;;;;;;;14.93;100.00;101889.69;5035787;28;20346;-57
2022/07/30 04:21:33;;;;;;;;;;;;;;;14.98;100.00;101887.69;5054061;28;19916;-59
2022/07/30 04:24:00;;;;;;;;;;;;;;;15.00;100.00;101888.47;5053325;28;19923;-56
2022/07/30 04:26:27;;;;;;;;;;;;;;;15.03;100.00;101893.66;5036152;28;20377;-57
2022/07/30 04:28:53;;;;;;;;;;;;;;;15.06;100.00;101893.50;5053393;28;20000;-56
2022/07/30 04:31:18;;;;;;;;;;;;;;;15.12;100.00;101884.38;5053834;28;19967;-59
2022/07/30 04:33:45;;;;;;;;;;;;;;;15.18;100.00;101884.06;5019647;28;19956;-56
2022/07/30 04:36:10;;;;;;;;;;;;;;;15.22;100.00;101886.50;5053839;28;20365;-50
2022/07/30 04:38:35;;;;;;;;;;;;;;;15.26;100.00;101895.25;5053628;28;19917;-56
2022/07/30 04:41:00;;;;;;;;;;;;;;;15.30;100.00;101886.16;5053528;28;20371;-57
2022/07/30 04:43:26;;;;;;;;;;;;;;;15.31;100.00;101885.22;5035768;28;19913;-56
2022/07/30 04:45:51;;;;;;;;;;;;;;;15.33;100.00;101895.81;5036006;28;19951;-55
2022/07/30 04:48:16;;;;;;;;;;;;;;;15.35;100.00;101880.59;5053522;28;19925;-56
2022/07/30 04:50:44;;;;;;;;;;;;;;;15.35;100.00;101892.13;5053204;28;19975;-56
2022/07/30 04:53:10;;;;;;;;;;;;;;;15.38;100.00;101889.31;5035652;28;19931;-57
2022/07/30 04:55:39;;;;;;;;;;;;;;;15.45;100.00;101892.56;5019149;28;20498;-56
2022/07/30 04:58:05;;;;;;;;;;;;;;;15.50;100.00;101894.97;5053206;28;19917;-57
2022/07/30 05:00:32;;;;;;;;;;;;;;;15.54;100.00;101893.91;5052482;28;19921;-53
2022/07/30 05:02:58;;;;;;;;;;;;;;;15.56;100.00;101886.69;5053280;28;20264;-57
2022/07/30 05:05:24;;;;;;;;;;;;;;;15.57;100.00;101891.09;5051590;28;20010;-56
2022/07/30 05:07:50;;;;;;;;;;;;;;;15.61;100.00;101891.81;5035144;28;19920;-54
2022/07/30 05:10:16;;;;;;;;;;;;;;;15.66;100.00;101898.63;5052461;28;19917;-56
2022/07/30 05:12:41;;;;;;;;;;;;;;;15.73;100.00;101902.75;5052520;28;19916;-54
2022/07/30 05:15:08;;;;;;;;;;;;;;;15.79;100.00;101893.53;5035096;28;20023;-57
2022/07/30 05:17:33;;;;;;;;;;;;;;;15.87;100.00;101896.75;5035173;28;19934;-56
2022/07/30 05:19:59;;;;;;;;;;;;;;;15.95;100.00;101906.19;5052679;28;20431;-54
2022/07/30 05:22:28;;;;;;;;;;;;;;;16.00;100.00;101905.00;5052267;28;19928;-56
2022/07/30 05:24:54;;;;;;;;;;;;;;;16.02;100.00;101904.91;5034659;28;19917;-54
2022/07/30 05:27:20;;;;;;;;;;;;;;;16.04;100.00;101911.91;5052951;28;19962;-53
2022/07/30 05:29:45;;;;;;;;;;;;;;;16.07;100.00;101912.72;5030861;28;19927;-56
2022/07/30 05:32:11;;;;;;;;;;;;;;;16.11;100.00;101911.59;5045491;28;20019;-55
2022/07/30 05:34:36;;;;;;;;;;;;;;;16.16;100.00;101922.91;5032061;28;19920;-56
2022/07/30 05:37:01;;;;;;;;;;;;;;;16.17;100.00;101922.81;5052748;28;19923;-56
2022/07/30 05:39:26;;;;;;;;;;;;;;;16.24;100.00;101927.88;5052642;28;19916;-56
2022/07/30 05:41:52;;;;;;;;;;;;;;;16.31;100.00;101935.50;5052205;28;19990;-57
2022/07/30 05:44:17;;;;;;;;;;;;;;;16.34;100.00;101926.44;5034574;28;20085;-56
2022/07/30 05:46:43;;;;;;;;;;;;;;;16.39;100.00;101929.75;5034151;28;19921;-56
2022/07/30 05:49:08;;;;;;;;;;;;;;;16.43;100.00;101927.78;5051527;28;19930;-55
2022/07/30 05:51:33;;;;;;;;;;;;;;;16.47;100.00;101924.88;5047079;28;19917;-56
2022/07/30 05:53:58;;;;;;;;;;;;;;;16.51;100.00;101925.59;5051719;28;20385;-58
2022/07/30 05:56:24;;;;;;;;;;;;;;;16.55;100.00;101929.81;5049088;28;20343;-55
2022/07/30 05:58:49;;;;;;;;;;;;;;;16.61;100.00;101923.28;5052735;28;19928;-56
2022/07/30 06:01:14;;;;;;;;;;;;;;;16.66;100.00;101930.13;5026365;28;19983;-55
2022/07/30 06:03:39;;;;;;;;;;;;;;;16.70;100.00;101931.69;5031402;28;19929;-55
2022/07/30 06:06:06;;;;;;;;;;;;;;;16.75;100.00;101934.09;5052402;28;19951;-56
2022/07/30 06:08:31;;;;;;;;;;;;;;;16.78;100.00;101943.78;5052173;28;19916;-55
2022/07/30 06:10:56;;;;;;;;;;;;;;;16.76;100.00;101927.78;5034376;28;20394;-53
2022/07/30 06:13:21;;;;;;;;;;;;;;;16.79;100.00;101935.69;5051800;28;19990;-57
2022/07/30 06:15:47;;;;;;;;;;;;;;;16.82;100.00;101934.66;5052219;28;19947;-56
2022/07/30 06:18:12;;;;;;;;;;;;;;;16.89;100.00;101938.69;5034321;28;19940;-56
2022/07/30 06:20:37;;;;;;;;;;;;;;;16.96;100.00;101936.59;5050474;28;19947;-56
2022/07/30 06:23:02;;;;;;;;;;;;;;;17.04;100.00;101943.25;5032196;28;20393;-56
2022/07/30 06:25:28;;;;;;;;;;;;;;;17.11;100.00;101937.56;5047012;28;20419;-57
2022/07/30 06:27:53;;;;;;;;;;;;;;;17.11;100.00;101935.75;5052166;28;20380;-55
2022/07/30 06:30:18;;;;;;;;;;;;;;;17.16;100.00;101940.84;5049602;28;20015;-57
2022/07/30 06:32:44;;;;;;;;;;;;;;;17.20;100.00;101931.72;5048364;28;19919;-55
2022/07/30 06:35:09;;;;;;;;;;;;;;;17.29;100.00;101935.69;5042692;28;19929;-57
2022/07/30 06:37:35;;;;;;;;;;;;;;;17.32;100.00;101944.41;5033550;28;19924;-57
2022/07/30 06:40:00;;;;;;;;;;;;;;;17.36;100.00;101931.72;5035310;28;19917;-56
2022/07/30 06:42:25;;;;;;;;;;;;;;;17.42;100.00;101936.72;5032285;28;19927;-55
2022/07/30 06:44:50;;;;;;;;;;;;;;;17.48;100.00;101928.34;5017472;28;19917;-58
2022/07/30 06:47:25;;;;;;;;;;;;;;;17.56;100.00;101930.59;5052588;28;19963;-57
2022/07/30 06:49:50;;;;;;;;;;;;;;;17.59;100.00;101934.91;5055617;28;20387;-56
2022/07/30 06:52:15;;;;;;;;;;;;;;;17.62;100.00;101935.59;5021323;28;19920;-56
2022/07/30 06:54:41;;;;;;;;;;;;;;;17.78;100.00;101937.41;5054671;28;19928;-57
2022/07/30 06:57:06;;;;;;;;;;;;;;;17.90;100.00;101936.66;5033194;28;19956;-57
2022/07/30 06:59:31;;;;;;;;;;;;;;;17.88;100.00;101937.72;5053599;28;19928;-57
2022/07/30 07:01:56;;;;;;;;;;;;;;;18.00;100.00;101940.56;5048559;28;19940;-57
2022/07/30 07:04:21;;;;;;;;;;;;;;;18.11;100.00;101939.09;5050373;28;19917;-56
2022/07/30 07:06:47;;;;;;;;;;;;;;;18.22;100.00;101939.28;5049564;28;19917;-56
2022/07/30 07:09:12;;;;;;;;;;;;;;;18.27;100.00;101936.34;5046171;28;19921;-57
2022/07/30 07:11:37;;;;;;;;;;;;;;;18.32;100.00;101943.16;5052741;28;19920;-60
2022/07/30 07:14:02;;;;;;;;;;;;;;;18.40;99.31;101947.19;5054821;28;19939;-57
2022/07/30 07:16:28;;;;;;;;;;;;;;;18.39;99.04;101945.47;5055297;28;19917;-57
2022/07/30 07:18:54;;;;;;;;;;;;;;;18.44;99.19;101944.25;5054515;28;19924;-57
2022/07/30 07:21:20;;;;;;;;;;;;;;;18.48;97.94;101944.94;5048550;28;19917;-55
2022/07/30 07:23:47;;;;;;;;;;;;;;;18.48;97.42;101947.59;5030996;28;19923;-54
2022/07/30 07:26:13;;;;;;;;;;;;;;;18.51;94.97;101950.09;5037551;28;19936;-54
2022/07/30 07:28:39;;;;;;;;;;;;;;;18.44;95.71;101948.72;5054500;28;19916;-56
2022/07/30 07:31:07;;;;;;;;;;;;;;;18.52;96.45;101949.13;5054774;28;19920;-56
2022/07/30 07:33:32;;;;;;;;;;;;;;;18.54;95.70;101957.94;5035949;28;19916;-56
2022/07/30 07:35:58;;;;;;;;;;;;;;;18.64;95.45;101964.50;5036698;28;20016;-56
2022/07/30 07:38:23;;;;;;;;;;;;;;;18.59;95.03;101960.34;5054320;28;19916;-55
2022/07/30 07:40:48;;;;;;;;;;;;;;;18.69;95.98;101957.97;5054585;28;19917;-56
2022/07/30 07:43:14;;;;;;;;;;;;;;;18.72;97.08;101957.78;5033996;28;20376;-56
2022/07/30 07:45:42;;;;;;;;;;;;;;;18.74;94.54;101954.03;5053533;28;19966;-53
2022/07/30 07:48:08;;;;;;;;;;;;;;;18.74;94.55;101958.56;5052446;28;19956;-56
2022/07/30 07:50:34;;;;;;;;;;;;;;;18.70;97.11;101965.94;5052157;28;19959;-56
2022/07/30 07:52:59;;;;;;;;;;;;;;;18.81;93.86;101960.75;5051804;28;19939;-55
2022/07/30 07:55:24;;;;;;;;;;;;;;;18.83;91.68;101953.47;5034962;28;19925;-57
2022/07/30 07:57:50;;;;;;;;;;;;;;;18.95;91.68;101956.38;5035006;28;19921;-57
2022/07/30 08:00:16;;;;;;;;;;;;;;;19.07;90.54;101954.75;5035556;28;19920;-57
2022/07/30 08:02:42;;;;;;;;;;;;;;;19.18;91.44;101952.22;5035759;28;19921;-56
2022/07/30 08:05:09;;;;;;;;;;;;;;;19.31;90.85;101952.34;5036116;28;19978;-57
2022/07/30 08:07:35;;;;;;;;;;;;;;;19.34;90.28;101945.91;5053895;28;19920;-57
2022/07/30 08:10:01;;;;;;;;;;;;;;;19.38;89.19;101948.28;5053639;28;19917;-56
2022/07/30 08:12:27;;;;;;;;;;;;;;;19.46;87.25;101942.41;5050689;28;19924;-55
2022/07/30 08:14:52;;;;;;;;;;;;;;;19.52;85.92;101939.31;5052345;28;20019;-56
2022/07/30 08:17:18;;;;;;;;;;;;;;;19.45;88.17;101944.25;5053030;28;20023;-57
2022/07/30 08:19:44;;;;;;;;;;;;;;;19.52;84.99;101944.69;5052087;28;20034;-56
2022/07/30 08:22:09;;;;;;;;;;;;;;;19.62;86.21;101940.44;5053239;28;20336;-52
2022/07/30 08:24:35;;;;;;;;;;;;;;;19.70;83.82;101941.78;5051796;28;20496;-56
2022/07/30 08:27:00;;;;;;;;;;;;;;;19.72;84.42;101935.34;5032535;28;19921;-55
2022/07/30 08:29:25;;;;;;;;;;;;;;;19.83;84.06;101939.16;5051507;28;19913;-57
2022/07/30 08:31:51;;;;;;;;;;;;;;;19.91;82.03;101934.13;5053193;28;19960;-57
2022/07/30 08:34:17;;;;;;;;;;;;;;;20.01;81.98;101934.38;5053718;28;19921;-55
2022/07/30 08:36:42;;;;;;;;;;;;;;;20.14;79.36;101936.13;5052961;28;20371;-56
2022/07/30 08:39:07;;;;;;;;;;;;;;;20.17;78.77;101937.75;5008917;28;19921;-56
2022/07/30 08:41:34;;;;;;;;;;;;;;;20.24;77.80;101939.06;5049104;28;19912;-56
2022/07/30 08:44:00;;;;;;;;;;;;;;;20.29;77.26;101941.41;5053317;28;19916;-56
2022/07/30 08:46:28;;;;;;;;;;;;;;;20.49;75.80;101949.94;5034786;28;19916;-56
2022/07/30 08:48:53;;;;;;;;;;;;;;;20.73;73.76;101947.38;5052714;28;19916;-55
2022/07/30 08:51:19;;;;;;;;;;;;;;;20.85;72.76;101951.06;5053239;28;19913;-56
2022/07/30 08:53:44;;;;;;;;;;;;;;;21.53;69.70;101952.41;5034146;28;19925;-56
2022/07/30 08:56:10;;;;;;;;;;;;;;;22.50;67.06;101955.06;5050118;28;20450;-57
2022/07/30 08:58:36;;;;;;;;;;;;;;;23.16;64.10;101958.94;5033502;28;19946;-58
2022/07/30 09:01:01;;;;;;;;;;;;;;;24.05;58.26;101957.03;5051696;28;20017;-58
2022/07/30 09:03:27;;;;;;;;;;;;;;;25.11;53.28;101956.91;5051042;28;19920;-57
2022/07/30 09:05:52;;;;;;;;;;;;;;;26.08;46.37;101949.97;5035094;28;20059;-57
2022/07/30 09:08:17;;;;;;;;;;;;;;;26.26;44.98;101954.69;5034777;28;19955;-57
2022/07/30 09:10:43;;;;;;;;;;;;;;;26.92;44.26;101952.94;5052176;28;19904;-57
2022/07/30 09:13:28;;;;;;;;;;;;;;;27.40;41.58;101960.03;5052932;28;20395;-58
2022/07/30 09:15:54;;;;;;;;;;;;;;;27.06;43.11;101967.91;5051859;28;19974;-58
2022/07/30 09:18:27;;;;;;;;;;;;;;;27.64;42.09;101973.03;5052137;28;19959;-59
2022/07/30 09:20:52;;;;;;;;;;;;;;;27.53;42.77;101973.25;5052485;28;20257;-59
2022/07/30 09:23:18;;;;;;;;;;;;;;;27.76;40.77;101968.25;5052717;28;19920;-58
2022/07/30 09:25:44;;;;;;;;;;;;;;;27.51;45.28;101966.25;5051797;28;20299;-59
2022/07/30 09:28:10;;;;;;;;;;;;;;;27.58;43.34;101962.75;5052628;28;19916;-58
2022/07/30 09:30:43;;;;;;;;;;;;;;;27.86;40.29;101962.72;5034499;28;19913;-59
2022/07/30 09:33:08;;;;;;;;;;;;;;;28.37;38.45;101953.97;5034159;28;19917;-57
2022/07/30 09:35:34;;;;;;;;;;;;;;;27.84;43.44;101955.72;5052183;28;19975;-59
2022/07/30 09:37:59;;;;;;;;;;;;;;;28.02;39.63;101951.13;5034220;28;19921;-59
2022/07/30 09:40:25;;;;;;;;;;;;;;;28.25;38.65;101956.94;5051818;28;20380;-58
2022/07/30 09:43:03;;;;;;;;;;;;;;;28.41;38.90;101949.91;5051533;28;19956;-57
2022/07/30 09:45:28;;;;;;;;;;;;;;;27.75;41.68;101954.78;5051574;28;19912;-58
2022/07/30 09:47:54;;;;;;;;;;;;;;;28.19;38.97;101946.69;5051309;28;20642;-58
2022/07/30 09:50:20;;;;;;;;;;;;;;;28.36;38.77;101939.47;5052540;28;20297;-53
2022/07/30 09:52:46;;;;;;;;;;;;;;;28.42;39.95;101949.75;5052295;28;19916;-55
2022/07/30 09:55:12;;;;;;;;;;;;;;;28.65;37.59;101943.75;5033925;28;20332;-59
2022/07/30 09:58:03;;;;;;;;;;;;;;;29.62;39.19;101934.44;5052021;28;20431;-59
2022/07/30 10:00:29;;;;;;;;;;;;;;;29.85;35.83;101938.22;5038151;28;19919;-58
2022/07/30 10:02:55;;;;;;;;;;;;;;;29.25;35.64;101945.59;5051550;28;19966;-58
2022/07/30 10:05:21;;;;;;;;;;;;;;;29.68;36.66;101939.22;5052175;28;19928;-59
2022/07/30 10:07:51;;;;;;;;;;;;;;;29.85;36.69;101943.69;5051588;28;19924;-59
2022/07/30 10:10:17;;;;;;;;;;;;;;;30.04;34.79;101941.66;5051799;28;19981;-59
2022/07/30 10:12:44;;;;;;;;;;;;;;;30.34;33.04;101950.19;5051797;28;20408;-59
2022/07/30 10:15:10;;;;;;;;;;;;;;;30.30;38.29;101943.38;5051699;28;20385;-58
2022/07/30 10:17:37;;;;;;;;;;;;;;;29.26;37.51;101947.28;5051510;28;19932;-59
2022/07/30 10:20:03;;;;;;;;;;;;;;;29.71;34.85;101964.31;5051448;28;19974;-58
2022/07/30 10:22:28;;;;;;;;;;;;;;;30.02;33.82;101950.03;5051067;28;19916;-60
2022/07/30 10:24:54;;;;;;;;;;;;;;;30.04;36.24;101958.03;5050640;28;19923;-58
2022/07/30 10:27:19;;;;;;;;;;;;;;;29.94;34.09;101960.09;5041442;28;19928;-60
2022/07/30 10:29:45;;;;;;;;;;;;;;;29.96;34.74;101958.88;5032668;28;20398;-59
2022/07/30 10:32:12;;;;;;;;;;;;;;;29.81;34.15;101960.56;5050482;28;19921;-58
2022/07/30 10:34:38;;;;;;;;;;;;;;;29.10;34.56;101963.59;5036823;28;19968;-57
2022/07/30 10:37:05;;;;;;;;;;;;;;;29.34;35.90;101956.56;5029024;28;20320;-57
2022/07/30 10:39:36;;;;;;;;;;;;;;;29.07;38.49;101947.56;5046920;28;19990;-57
2022/07/30 10:42:01;;;;;;;;;;;;;;;28.55;36.80;101959.38;5030877;28;19920;-57
2022/07/30 10:44:32;;;;;;;;;;;;;;;28.77;35.59;101947.09;5051507;28;19913;-57
2022/07/30 10:47:02;;;;;;;;;;;;;;;28.70;36.78;101949.59;5051247;28;19919;-58
2022/07/30 10:49:27;;;;;;;;;;;;;;;28.39;36.85;101952.81;5051022;28;20331;-57
2022/07/30 10:51:55;;;;;;;;;;;;;;;28.31;36.56;101946.44;5050349;28;19927;-57
2022/07/30 10:54:32;;;;;;;;;;;;;;;28.02;39.58;101939.34;5038132;28;19978;-57
2022/07/30 10:57:05;;;;;;;;;;;;;;;28.49;38.09;101947.22;5049778;28;20372;-57
2022/07/30 10:59:50;;;;;;;;;;;;;;;28.85;37.16;101946.28;5050989;28;19917;-58
2022/07/30 11:02:16;;;;;;;;;;;;;;;29.19;37.51;101943.50;5029234;28;19964;-58
2022/07/30 11:04:41;;;;;;;;;;;;;;;28.47;37.88;101938.38;5025740;28;19959;-58
2022/07/30 11:07:28;;;;;;;;;;;;;;;28.24;37.66;101947.06;5030184;28;19917;-58
2022/07/30 11:10:03;;;;;;;;;;;;;;;28.34;37.08;101943.38;5039177;28;19917;-58
2022/07/30 11:12:40;;;;;;;;;;;;;;;27.83;37.79;101945.81;5027471;28;20011;-57
2022/07/30 11:15:09;;;;;;;;;;;;;;;27.13;38.79;101950.00;5030067;28;20304;-57
2022/07/30 11:17:57;;;;;;;;;;;;;;;26.46;42.77;101947.38;5030696;28;19939;-59
2022/07/30 11:20:22;;;;;;;;;;;;;;;26.23;41.23;101944.09;5030851;28;19944;-58
2022/07/30 11:22:48;;;;;;;;;;;;;;;25.90;42.73;101944.41;5031379;28;19913;-58
2022/07/30 11:25:25;;;;;;;;;;;;;;;25.89;42.68;101947.25;5031319;28;19924;-58
2022/07/30 11:27:51;;;;;;;;;;;;;;;26.03;42.10;101952.25;5031245;28;20036;-55
2022/07/30 11:30:20;;;;;;;;;;;;;;;26.25;41.28;101952.97;5028346;28;20375;-57
2022/07/30 11:32:46;;;;;;;;;;;;;;;26.41;42.41;101946.97;5031415;28;19924;-57
2022/07/30 11:35:22;;;;;;;;;;;;;;;26.32;42.42;101946.81;5034755;28;20281;-58
2022/07/30 11:38:02;;;;;;;;;;;;;;;26.56;45.88;101947.31;5036927;28;19951;-58
2022/07/30 11:40:29;;;;;;;;;;;;;;;26.06;44.26;101951.13;5033469;28;20411;-58
2022/07/30 11:43:13;;;;;;;;;;;;;;;26.17;42.34;101945.56;5033929;28;19916;-59
2022/07/30 11:45:38;;;;;;;;;;;;;;;26.49;41.08;101947.06;5033162;28;19921;-56
2022/07/30 11:48:08;;;;;;;;;;;;;;;26.65;39.78;101957.31;5033203;28;20043;-58
2022/07/30 11:50:33;;;;;;;;;;;;;;;26.44;41.70;101946.66;5029328;28;19923;-57
2022/07/30 11:52:59;;;;;;;;;;;;;;;27.05;44.76;101948.03;5034448;28;19992;-57
2022/07/30 11:55:26;;;;;;;;;;;;;;;27.47;39.71;101952.97;5033915;28;19939;-57
2022/07/30 11:57:52;;;;;;;;;;;;;;;27.69;41.70;101945.38;5034393;28;19917;-57
2022/07/30 12:00:17;;;;;;;;;;;;;;;27.80;41.29;101949.72;5044857;28;19946;-58
2022/07/30 12:02:43;;;;;;;;;;;;;;;27.93;38.02;101952.03;5043492;28;19932;-58
2022/07/30 12:05:08;;;;;;;;;;;;;;;27.94;38.61;101953.75;5053871;28;19920;-58
2022/07/30 12:07:34;;;;;;;;;;;;;;;28.22;38.01;101956.41;5053993;28;19921;-58
2022/07/30 12:10:15;;;;;;;;;;;;;;;28.84;37.87;101950.00;5053108;28;19932;-58
2022/07/30 12:12:41;;;;;;;;;;;;;;;28.90;40.80;101954.81;5034943;28;19931;-58
2022/07/30 12:15:06;;;;;;;;;;;;;;;28.75;38.78;101949.13;5034396;28;19921;-58
2022/07/30 12:17:41;;;;;;;;;;;;;;;28.66;40.72;101950.06;5052620;28;20425;-58
2022/07/30 12:20:13;;;;;;;;;;;;;;;29.06;36.73;101959.50;5053439;28;19944;-58
2022/07/30 12:22:38;;;;;;;;;;;;;;;29.34;37.32;101956.56;5053870;28;19923;-58
2022/07/30 12:25:05;;;;;;;;;;;;;;;28.56;38.98;101955.63;5052549;28;19916;-58
2022/07/30 12:27:31;;;;;;;;;;;;;;;28.86;39.08;101959.72;5035931;28;19913;-56
2022/07/30 12:29:56;;;;;;;;;;;;;;;28.43;38.53;101956.91;5053420;28;19917;-58
2022/07/30 12:32:21;;;;;;;;;;;;;;;27.93;41.85;101952.03;5052491;28;20300;-57